createdAt,value
2023-04-20T00:03:55.756Z,18.00
2023-04-20T00:08:58.066Z,17.94
2023-04-20T00:14:00.210Z,17.95
2023-04-20T00:19:02.382Z,17.94
2023-04-20T00:24:04.734Z,17.93
2023-04-20T00:29:06.954Z,17.96
2023-04-20T00:34:09.066Z,17.97
2023-04-20T00:39:11.198Z,17.95
2023-04-20T00:44:14.299Z,17.93
2023-04-20T00:49:16.673Z,17.94
2023-04-20T00:54:19.014Z,17.94
2023-04-20T00:59:22.579Z,17.96
2023-04-20T01:04:24.925Z,17.91
2023-04-20T01:09:27.066Z,17.93
2023-04-20T01:14:30.882Z,17.92
2023-04-20T01:19:33.587Z,17.93
2023-04-20T01:24:37.464Z,17.92
2023-04-20T01:29:39.949Z,17.88
2023-04-20T01:34:44.638Z,17.88
2023-04-20T01:39:46.946Z,17.89
2023-04-20T01:44:49.210Z,17.92
2023-04-20T01:49:51.395Z,17.90
2023-04-20T01:54:54.075Z,17.88
2023-04-20T01:59:56.114Z,17.85
2023-04-20T02:04:58.189Z,17.85
2023-04-20T02:10:00.337Z,17.86
2023-04-20T02:15:03.091Z,17.88
2023-04-20T02:20:09.554Z,17.85
2023-04-20T02:25:12.812Z,17.83
2023-04-20T02:30:14.992Z,17.83
2023-04-20T02:35:17.816Z,17.82
2023-04-20T02:40:20.111Z,17.86
2023-04-20T02:45:22.450Z,17.85
2023-04-20T02:50:24.965Z,17.81
2023-04-20T02:55:36.957Z,17.82
2023-04-20T03:00:48.354Z,17.83
2023-04-20T03:05:50.915Z,17.83
2023-04-20T03:10:53.179Z,17.83
2023-04-20T03:15:56.068Z,17.78
2023-04-20T03:21:11.456Z,17.79
2023-04-20T03:26:14.291Z,17.81
2023-04-20T03:31:48.597Z,17.82
2023-04-20T03:36:51.829Z,17.77
2023-04-20T03:41:53.866Z,17.76
2023-04-20T03:46:57.313Z,17.74
2023-04-20T03:51:59.516Z,17.77
2023-04-20T03:57:02.411Z,17.78
2023-04-20T04:02:06.018Z,17.75
2023-04-20T04:07:08.364Z,17.71
2023-04-20T04:12:12.144Z,17.76
2023-04-20T04:17:15.003Z,17.79
2023-04-20T04:22:17.906Z,17.79
2023-04-20T04:27:40.105Z,17.74
2023-04-20T04:32:44.950Z,17.77
2023-04-20T04:37:47.816Z,17.77
2023-04-20T04:42:51.528Z,17.75
2023-04-20T04:47:54.200Z,17.75
2023-04-20T04:52:56.905Z,17.74
2023-04-20T04:57:59.181Z,17.74
2023-04-20T05:03:01.337Z,17.74
2023-04-20T05:08:03.601Z,17.75
2023-04-20T05:13:05.919Z,17.73
2023-04-20T05:18:08.083Z,17.71
2023-04-20T05:23:10.103Z,17.73
2023-04-20T05:28:12.313Z,17.75
2023-04-20T05:33:14.591Z,17.72
2023-04-20T05:38:16.643Z,17.70
2023-04-20T05:43:19.485Z,17.70
2023-04-20T05:48:21.679Z,17.70
2023-04-20T05:53:23.829Z,17.71
2023-04-20T05:58:27.496Z,17.68
2023-04-20T06:03:29.883Z,17.58
2023-04-20T06:08:32.187Z,17.69
2023-04-20T06:13:34.322Z,17.69
2023-04-20T06:18:37.513Z,17.69
2023-04-20T06:23:39.697Z,17.66
2023-04-20T06:28:42.102Z,17.65
2023-04-20T06:33:44.397Z,17.65
2023-04-20T06:38:46.606Z,17.66
2023-04-20T06:43:48.644Z,17.65
2023-04-20T06:48:50.902Z,17.63
2023-04-20T06:53:53.168Z,17.64
2023-04-20T06:58:55.180Z,17.62
2023-04-20T07:03:57.446Z,17.63
2023-04-20T07:08:59.761Z,17.62
2023-04-20T07:14:01.943Z,17.61
2023-04-20T07:19:04.062Z,17.63
2023-04-20T07:24:06.665Z,17.63
2023-04-20T07:29:08.739Z,17.62
2023-04-20T07:34:11.339Z,17.61
2023-04-20T07:39:13.429Z,17.62
2023-04-20T07:44:15.632Z,17.63
2023-04-20T07:49:18.006Z,17.62
2023-04-20T07:54:20.241Z,17.61
2023-04-20T07:59:22.358Z,17.59
2023-04-20T08:04:24.522Z,17.59
2023-04-20T08:09:27.010Z,17.60
2023-04-20T08:14:29.092Z,17.61
2023-04-20T08:19:31.412Z,17.61
2023-04-20T08:24:33.516Z,17.62
2023-04-20T08:29:35.655Z,17.60
2023-04-20T08:34:38.013Z,17.60
2023-04-20T08:39:40.475Z,17.61
2023-04-20T08:44:42.736Z,17.62
2023-04-20T08:49:45.894Z,17.62
2023-04-20T08:54:55.803Z,17.60
2023-04-20T08:59:58.577Z,17.61
2023-04-20T09:05:05.415Z,17.62
2023-04-20T09:10:07.786Z,17.61
2023-04-20T09:15:11.016Z,17.61
2023-04-20T09:20:14.709Z,17.60
2023-04-20T09:25:18.053Z,17.59
2023-04-20T09:30:20.132Z,17.61
2023-04-20T09:35:25.423Z,17.61
2023-04-20T09:40:27.888Z,17.63
2023-04-20T09:45:30.143Z,17.61
2023-04-20T09:50:45.717Z,17.60
2023-04-20T09:55:54.247Z,17.61
2023-04-20T10:00:56.390Z,17.63
2023-04-20T10:05:58.589Z,17.64
2023-04-20T10:11:00.704Z,17.61
2023-04-20T10:16:02.742Z,17.61
2023-04-20T10:21:09.755Z,17.62
2023-04-20T10:26:11.824Z,17.64
2023-04-20T10:31:15.778Z,17.64
2023-04-20T10:36:27.754Z,17.61
2023-04-20T10:41:29.774Z,17.62
2023-04-20T10:46:32.032Z,17.62
2023-04-20T10:51:34.092Z,17.62
2023-04-20T10:56:47.514Z,17.64
2023-04-20T11:01:50.946Z,17.65
2023-04-20T11:06:52.953Z,17.63
2023-04-20T11:12:14.968Z,17.63
2023-04-20T11:17:17.212Z,17.65
2023-04-20T11:22:23.621Z,17.65
2023-04-20T11:27:25.923Z,17.66
2023-04-20T11:32:28.128Z,17.64
2023-04-20T11:37:30.371Z,17.65
2023-04-20T11:42:32.423Z,17.67
2023-04-20T11:47:34.527Z,17.68
2023-04-20T11:52:36.604Z,17.69
2023-04-20T11:57:38.705Z,17.66
2023-04-20T12:02:41.565Z,17.69
2023-04-20T12:07:44.186Z,17.69
2023-04-20T12:12:46.275Z,17.72
2023-04-20T12:17:48.386Z,17.70
2023-04-20T12:22:50.489Z,17.72
2023-04-20T12:27:52.544Z,17.70
2023-04-20T12:32:54.696Z,17.72
2023-04-20T12:37:56.856Z,17.72
2023-04-20T12:42:58.906Z,17.72
2023-04-20T12:48:01.070Z,17.72
2023-04-20T12:53:03.456Z,17.74
2023-04-20T12:58:05.571Z,17.73
2023-04-20T13:03:07.747Z,17.73
2023-04-20T13:08:10.171Z,17.73
2023-04-20T13:13:12.236Z,17.75
2023-04-20T13:18:15.674Z,17.76
2023-04-20T13:23:18.145Z,17.75
2023-04-20T13:28:20.589Z,17.76
2023-04-20T13:33:22.607Z,17.76
2023-04-20T13:38:24.629Z,17.76
2023-04-20T13:43:26.910Z,17.79
2023-04-20T13:48:28.941Z,17.78
2023-04-20T13:53:30.979Z,17.76
2023-04-20T13:58:33.241Z,17.77
2023-04-20T14:03:35.501Z,17.77
2023-04-20T14:08:37.633Z,17.79
2023-04-20T14:13:39.764Z,17.81
2023-04-20T14:18:41.849Z,17.81
2023-04-20T14:23:44.193Z,17.81
2023-04-20T14:28:47.274Z,17.83
2023-04-20T14:33:49.514Z,17.82
2023-04-20T14:38:51.966Z,17.82
2023-04-20T14:43:54.047Z,17.81
2023-04-20T14:48:56.048Z,17.83
2023-04-20T14:53:58.338Z,17.84
2023-04-20T14:59:00.584Z,17.84
2023-04-20T15:04:02.801Z,17.85
2023-04-20T15:09:05.010Z,17.89
2023-04-20T15:14:07.170Z,17.87
2023-04-20T15:19:09.198Z,17.87
2023-04-20T15:24:11.376Z,17.87
2023-04-20T15:29:13.376Z,17.89
2023-04-20T15:34:17.265Z,17.89
2023-04-20T15:39:20.245Z,17.91
2023-04-20T15:44:22.269Z,17.91
2023-04-20T15:49:24.517Z,17.89
2023-04-20T15:54:26.575Z,17.82
2023-04-20T15:59:28.586Z,17.91
2023-04-20T16:04:30.719Z,17.92
2023-04-20T16:09:32.815Z,17.93
2023-04-20T16:14:34.969Z,17.94
2023-04-20T16:19:37.718Z,17.95
2023-04-20T16:24:40.032Z,17.96
2023-04-20T16:29:42.064Z,17.94
2023-04-20T16:34:44.117Z,17.99
2023-04-20T16:39:46.607Z,17.99
2023-04-20T16:44:48.636Z,17.98
2023-04-20T16:49:50.669Z,18.00
2023-04-20T16:54:52.720Z,17.98
2023-04-20T16:59:54.740Z,18.00
2023-04-20T17:04:56.814Z,18.01
2023-04-20T17:09:59.404Z,18.03
2023-04-20T17:15:01.465Z,18.02
2023-04-20T17:20:07.540Z,18.01
2023-04-20T17:25:09.921Z,18.04
2023-04-20T17:30:12.440Z,18.08
2023-04-20T17:35:14.459Z,18.07
2023-04-20T17:40:16.499Z,18.04
2023-04-20T17:45:18.728Z,18.05
2023-04-20T17:50:20.921Z,18.05
2023-04-20T17:55:22.954Z,18.06
2023-04-20T18:00:25.014Z,18.08
2023-04-20T18:05:29.153Z,18.09
2023-04-20T18:10:32.243Z,18.07
2023-04-20T18:15:34.430Z,17.99
2023-04-20T18:20:36.537Z,18.06
2023-04-20T18:25:38.742Z,18.07
2023-04-20T18:30:42.322Z,18.09
2023-04-20T18:35:45.806Z,18.09
2023-04-20T18:40:47.871Z,18.09
2023-04-20T18:45:49.883Z,18.07
2023-04-20T18:50:51.968Z,18.10
2023-04-20T18:55:54.146Z,18.10
2023-04-20T19:00:56.428Z,18.11
2023-04-20T19:05:58.679Z,18.10
2023-04-20T19:11:00.880Z,18.10
2023-04-20T19:16:03.208Z,18.11
2023-04-20T19:21:05.714Z,18.10
2023-04-20T19:26:07.816Z,18.09
2023-04-20T19:31:11.142Z,18.11
2023-04-20T19:36:13.392Z,18.11
2023-04-20T19:41:15.617Z,18.04
2023-04-20T19:46:17.738Z,18.08
2023-04-20T19:51:19.929Z,18.13
2023-04-20T19:56:22.138Z,18.12
2023-04-20T20:01:24.279Z,18.09
2023-04-20T20:06:27.159Z,18.13
2023-04-20T20:11:29.327Z,18.12
2023-04-20T20:16:31.526Z,18.11
2023-04-20T20:21:33.975Z,18.13
2023-04-20T20:26:36.265Z,18.13
2023-04-20T20:31:38.454Z,18.10
2023-04-20T20:36:42.675Z,18.11
2023-04-20T20:41:44.946Z,18.12
2023-04-20T20:46:47.071Z,18.12
2023-04-20T20:51:49.190Z,18.12
2023-04-20T20:56:51.368Z,18.08
2023-04-20T21:01:53.925Z,18.13
2023-04-20T21:06:56.326Z,18.13
2023-04-20T21:11:58.411Z,18.11
2023-04-20T21:17:00.645Z,18.09
2023-04-20T21:22:02.886Z,18.09
2023-04-20T21:27:04.988Z,18.14
2023-04-20T21:32:07.109Z,18.11
2023-04-20T21:37:09.373Z,18.12
2023-04-20T21:42:11.384Z,18.13
2023-04-20T21:47:13.409Z,18.13
2023-04-20T21:52:15.758Z,18.13
2023-04-20T21:57:17.755Z,18.12
2023-04-20T22:02:19.805Z,18.13
2023-04-20T22:07:24.070Z,18.13
2023-04-20T22:12:36.427Z,18.13
2023-04-20T22:17:42.129Z,18.13
2023-04-20T22:22:44.202Z,18.11
2023-04-20T22:27:46.409Z,18.11
2023-04-20T22:32:49.001Z,18.11
2023-04-20T22:37:51.355Z,18.11
2023-04-20T22:42:53.447Z,18.12
2023-04-20T22:47:55.536Z,18.11
2023-04-20T22:52:57.649Z,18.11
2023-04-20T22:57:59.668Z,18.12
2023-04-20T23:03:01.794Z,18.11
2023-04-20T23:08:04.042Z,18.12
2023-04-20T23:13:06.182Z,18.12
2023-04-20T23:18:08.276Z,18.11
2023-04-20T23:23:10.990Z,18.12
2023-04-20T23:28:13.064Z,18.09
2023-04-20T23:33:15.328Z,18.11
2023-04-20T23:38:18.335Z,18.12
2023-04-20T23:43:20.578Z,18.09
2023-04-20T23:48:22.702Z,18.08
2023-04-20T23:53:24.870Z,18.10
2023-04-20T23:58:28.127Z,18.09
